sensor_id;sensor_type;location;lat;lon;timestamp;P1;durP1;ratioP1;P2;durP2;ratioP2
11247;SDS011;5681;53.316;13.950;2023-02-24T00:01:41;18.90;;;4.23;;
11247;SDS011;5681;53.316;13.950;2023-02-24T00:04:09;18.77;;;4.27;;
11247;SDS011;5681;53.316;13.950;2023-02-24T00:06:38;23.67;;;4.20;;
11247;SDS011;5681;53.316;13.950;2023-02-24T00:09:08;27.77;;;5.10;;
11247;SDS011;5681;53.316;13.950;2023-02-24T00:11:35;24.03;;;5.30;;
11247;SDS011;5681;53.316;13.950;2023-02-24T00:14:03;25.47;;;4.80;;
11247;SDS011;5681;53.316;13.950;2023-02-24T00:16:30;23.27;;;4.67;;
11247;SDS011;5681;53.316;13.950;2023-02-24T00:18:57;29.37;;;5.77;;
11247;SDS011;5681;53.316;13.950;2023-02-24T00:21:24;28.60;;;4.90;;
11247;SDS011;5681;53.316;13.950;2023-02-24T00:23:50;27.93;;;4.67;;
11247;SDS011;5681;53.316;13.950;2023-02-24T00:26:19;26.70;;;4.93;;
11247;SDS011;5681;53.316;13.950;2023-02-24T00:28:45;30.73;;;5.37;;
11247;SDS011;5681;53.316;13.950;2023-02-24T00:31:12;30.33;;;4.40;;
11247;SDS011;5681;53.316;13.950;2023-02-24T00:33:41;23.57;;;4.20;;
11247;SDS011;5681;53.316;13.950;2023-02-24T00:36:09;33.87;;;5.50;;
11247;SDS011;5681;53.316;13.950;2023-02-24T00:38:47;28.37;;;4.47;;
11247;SDS011;5681;53.316;13.950;2023-02-24T00:41:15;22.90;;;4.70;;
11247;SDS011;5681;53.316;13.950;2023-02-24T00:43:44;24.60;;;5.33;;
11247;SDS011;5681;53.316;13.950;2023-02-24T00:46:12;25.23;;;4.33;;
11247;SDS011;5681;53.316;13.950;2023-02-24T00:48:41;24.77;;;4.17;;
11247;SDS011;5681;53.316;13.950;2023-02-24T00:51:10;22.87;;;4.57;;
11247;SDS011;5681;53.316;13.950;2023-02-24T00:53:38;24.60;;;4.97;;
11247;SDS011;5681;53.316;13.950;2023-02-24T00:56:07;23.93;;;4.27;;
11247;SDS011;5681;53.316;13.950;2023-02-24T00:58:36;21.33;;;4.87;;
11247;SDS011;5681;53.316;13.950;2023-02-24T01:01:04;18.67;;;3.70;;
11247;SDS011;5681;53.316;13.950;2023-02-24T01:03:33;25.97;;;4.50;;
11247;SDS011;5681;53.316;13.950;2023-02-24T01:06:00;26.30;;;4.80;;
11247;SDS011;5681;53.316;13.950;2023-02-24T01:08:27;25.50;;;4.67;;
11247;SDS011;5681;53.316;13.950;2023-02-24T01:10:54;21.60;;;3.73;;
11247;SDS011;5681;53.316;13.950;2023-02-24T01:13:35;23.87;;;4.27;;
11247;SDS011;5681;53.316;13.950;2023-02-24T01:16:03;21.30;;;4.73;;
11247;SDS011;5681;53.316;13.950;2023-02-24T01:18:31;23.40;;;4.20;;
11247;SDS011;5681;53.316;13.950;2023-02-24T01:20:57;16.40;;;4.23;;
11247;SDS011;5681;53.316;13.950;2023-02-24T01:23:24;27.07;;;4.57;;
11247;SDS011;5681;53.316;13.950;2023-02-24T01:25:50;19.53;;;4.27;;
11247;SDS011;5681;53.316;13.950;2023-02-24T01:28:17;20.47;;;3.60;;
11247;SDS011;5681;53.316;13.950;2023-02-24T01:30:43;20.57;;;3.67;;
11247;SDS011;5681;53.316;13.950;2023-02-24T01:33:11;26.67;;;4.23;;
11247;SDS011;5681;53.316;13.950;2023-02-24T01:35:39;19.60;;;4.57;;
11247;SDS011;5681;53.316;13.950;2023-02-24T01:38:05;24.77;;;4.63;;
11247;SDS011;5681;53.316;13.950;2023-02-24T01:40:31;21.03;;;3.73;;
11247;SDS011;5681;53.316;13.950;2023-02-24T01:42:58;20.30;;;4.13;;
11247;SDS011;5681;53.316;13.950;2023-02-24T01:45:25;19.00;;;3.70;;
11247;SDS011;5681;53.316;13.950;2023-02-24T01:47:55;24.40;;;3.73;;
11247;SDS011;5681;53.316;13.950;2023-02-24T01:50:23;20.23;;;3.30;;
11247;SDS011;5681;53.316;13.950;2023-02-24T01:52:52;18.93;;;3.60;;
11247;SDS011;5681;53.316;13.950;2023-02-24T01:55:21;18.00;;;3.83;;
11247;SDS011;5681;53.316;13.950;2023-02-24T01:57:53;21.97;;;3.87;;
11247;SDS011;5681;53.316;13.950;2023-02-24T02:00:19;19.47;;;3.50;;
11247;SDS011;5681;53.316;13.950;2023-02-24T02:03:01;25.33;;;4.00;;
11247;SDS011;5681;53.316;13.950;2023-02-24T02:05:37;23.40;;;3.57;;
11247;SDS011;5681;53.316;13.950;2023-02-24T02:08:05;16.80;;;3.23;;
11247;SDS011;5681;53.316;13.950;2023-02-24T02:10:33;25.50;;;3.90;;
11247;SDS011;5681;53.316;13.950;2023-02-24T02:12:59;22.00;;;3.77;;
11247;SDS011;5681;53.316;13.950;2023-02-24T02:15:28;19.33;;;3.83;;
11247;SDS011;5681;53.316;13.950;2023-02-24T02:17:58;21.30;;;3.20;;
11247;SDS011;5681;53.316;13.950;2023-02-24T02:20:34;20.90;;;3.63;;
11247;SDS011;5681;53.316;13.950;2023-02-24T02:23:31;12.80;;;3.03;;
11247;SDS011;5681;53.316;13.950;2023-02-24T02:26:15;23.07;;;3.80;;
11247;SDS011;5681;53.316;13.950;2023-02-24T02:28:56;15.73;;;3.37;;
11247;SDS011;5681;53.316;13.950;2023-02-24T02:31:37;13.73;;;3.40;;
11247;SDS011;5681;53.316;13.950;2023-02-24T02:34:28;23.93;;;3.90;;
11247;SDS011;5681;53.316;13.950;2023-02-24T02:37:00;20.83;;;3.53;;
11247;SDS011;5681;53.316;13.950;2023-02-24T02:39:32;14.77;;;3.23;;
11247;SDS011;5681;53.316;13.950;2023-02-24T02:42:04;15.07;;;3.37;;
11247;SDS011;5681;53.316;13.950;2023-02-24T02:44:39;14.27;;;2.63;;
11247;SDS011;5681;53.316;13.950;2023-02-24T02:47:12;14.20;;;3.60;;
11247;SDS011;5681;53.316;13.950;2023-02-24T02:49:44;12.60;;;3.00;;
11247;SDS011;5681;53.316;13.950;2023-02-24T02:52:16;15.00;;;2.93;;
11247;SDS011;5681;53.316;13.950;2023-02-24T02:54:47;13.83;;;3.33;;
11247;SDS011;5681;53.316;13.950;2023-02-24T02:57:15;18.20;;;3.93;;
11247;SDS011;5681;53.316;13.950;2023-02-24T02:59:44;16.03;;;3.10;;
11247;SDS011;5681;53.316;13.950;2023-02-24T03:02:15;18.20;;;3.80;;
11247;SDS011;5681;53.316;13.950;2023-02-24T03:04:44;24.23;;;4.10;;
11247;SDS011;5681;53.316;13.950;2023-02-24T03:07:16;19.27;;;3.83;;
11247;SDS011;5681;53.316;13.950;2023-02-24T03:09:46;22.93;;;4.07;;
11247;SDS011;5681;53.316;13.950;2023-02-24T03:12:16;17.40;;;3.60;;
11247;SDS011;5681;53.316;13.950;2023-02-24T03:14:45;13.80;;;2.97;;
11247;SDS011;5681;53.316;13.950;2023-02-24T03:17:16;20.37;;;3.27;;
11247;SDS011;5681;53.316;13.950;2023-02-24T03:19:48;15.77;;;3.13;;
11247;SDS011;5681;53.316;13.950;2023-02-24T03:22:19;18.27;;;3.57;;
11247;SDS011;5681;53.316;13.950;2023-02-24T03:24:49;19.40;;;3.47;;
11247;SDS011;5681;53.316;13.950;2023-02-24T03:27:18;16.73;;;3.43;;
11247;SDS011;5681;53.316;13.950;2023-02-24T03:29:50;18.83;;;3.87;;
11247;SDS011;5681;53.316;13.950;2023-02-24T03:32:19;13.67;;;3.10;;
11247;SDS011;5681;53.316;13.950;2023-02-24T03:34:52;23.07;;;3.80;;
11247;SDS011;5681;53.316;13.950;2023-02-24T03:37:21;14.67;;;3.70;;
11247;SDS011;5681;53.316;13.950;2023-02-24T03:39:50;16.30;;;3.60;;
11247;SDS011;5681;53.316;13.950;2023-02-24T03:42:18;15.77;;;3.20;;
11247;SDS011;5681;53.316;13.950;2023-02-24T03:44:45;22.77;;;3.53;;
11247;SDS011;5681;53.316;13.950;2023-02-24T03:47:11;15.17;;;3.30;;
11247;SDS011;5681;53.316;13.950;2023-02-24T03:49:39;16.33;;;3.20;;
11247;SDS011;5681;53.316;13.950;2023-02-24T03:52:11;22.03;;;3.90;;
11247;SDS011;5681;53.316;13.950;2023-02-24T03:54:51;18.33;;;3.17;;
11247;SDS011;5681;53.316;13.950;2023-02-24T03:57:25;19.67;;;3.50;;
11247;SDS011;5681;53.316;13.950;2023-02-24T03:59:59;15.37;;;2.73;;
11247;SDS011;5681;53.316;13.950;2023-02-24T04:02:44;18.13;;;3.40;;
11247;SDS011;5681;53.316;13.950;2023-02-24T04:05:13;16.17;;;2.90;;
11247;SDS011;5681;53.316;13.950;2023-02-24T04:07:42;16.47;;;3.10;;
11247;SDS011;5681;53.316;13.950;2023-02-24T04:10:17;12.93;;;2.80;;
11247;SDS011;5681;53.316;13.950;2023-02-24T04:12:48;16.43;;;3.23;;
11247;SDS011;5681;53.316;13.950;2023-02-24T04:15:18;18.77;;;3.30;;
11247;SDS011;5681;53.316;13.950;2023-02-24T04:17:47;15.20;;;3.33;;
11247;SDS011;5681;53.316;13.950;2023-02-24T04:20:16;15.47;;;3.20;;
11247;SDS011;5681;53.316;13.950;2023-02-24T04:22:46;14.03;;;3.67;;
11247;SDS011;5681;53.316;13.950;2023-02-24T04:25:15;23.17;;;4.03;;
11247;SDS011;5681;53.316;13.950;2023-02-24T04:27:43;13.93;;;3.13;;
11247;SDS011;5681;53.316;13.950;2023-02-24T04:30:11;13.60;;;2.43;;
11247;SDS011;5681;53.316;13.950;2023-02-24T04:32:38;15.97;;;2.90;;
11247;SDS011;5681;53.316;13.950;2023-02-24T04:35:07;12.03;;;3.20;;
11247;SDS011;5681;53.316;13.950;2023-02-24T04:37:36;13.07;;;3.00;;
11247;SDS011;5681;53.316;13.950;2023-02-24T04:40:10;14.83;;;2.77;;
11247;SDS011;5681;53.316;13.950;2023-02-24T04:42:40;8.70;;;2.37;;
11247;SDS011;5681;53.316;13.950;2023-02-24T04:45:11;12.77;;;2.80;;
11247;SDS011;5681;53.316;13.950;2023-02-24T04:47:38;16.23;;;2.50;;
11247;SDS011;5681;53.316;13.950;2023-02-24T04:50:07;12.33;;;2.80;;
11247;SDS011;5681;53.316;13.950;2023-02-24T04:52:35;11.17;;;2.83;;
11247;SDS011;5681;53.316;13.950;2023-02-24T04:55:02;12.97;;;3.00;;
11247;SDS011;5681;53.316;13.950;2023-02-24T04:57:35;10.83;;;2.40;;
11247;SDS011;5681;53.316;13.950;2023-02-24T05:00:02;9.60;;;2.20;;
11247;SDS011;5681;53.316;13.950;2023-02-24T05:02:36;14.47;;;2.23;;
11247;SDS011;5681;53.316;13.950;2023-02-24T05:05:03;12.93;;;2.23;;
11247;SDS011;5681;53.316;13.950;2023-02-24T05:07:31;12.40;;;2.50;;
11247;SDS011;5681;53.316;13.950;2023-02-24T05:09:58;15.27;;;2.60;;
11247;SDS011;5681;53.316;13.950;2023-02-24T05:12:24;13.83;;;2.23;;
11247;SDS011;5681;53.316;13.950;2023-02-24T05:14:54;19.20;;;3.10;;
11247;SDS011;5681;53.316;13.950;2023-02-24T05:17:25;13.50;;;3.17;;
11247;SDS011;5681;53.316;13.950;2023-02-24T05:19:51;12.93;;;3.80;;
11247;SDS011;5681;53.316;13.950;2023-02-24T05:22:35;18.97;;;5.80;;
11247;SDS011;5681;53.316;13.950;2023-02-24T05:25:02;16.43;;;4.03;;
11247;SDS011;5681;53.316;13.950;2023-02-24T05:27:28;16.50;;;2.53;;
11247;SDS011;5681;53.316;13.950;2023-02-24T05:29:56;15.27;;;3.30;;
11247;SDS011;5681;53.316;13.950;2023-02-24T05:32:22;15.10;;;3.10;;
11247;SDS011;5681;53.316;13.950;2023-02-24T05:34:49;12.00;;;2.33;;
11247;SDS011;5681;53.316;13.950;2023-02-24T05:37:15;14.03;;;3.03;;
11247;SDS011;5681;53.316;13.950;2023-02-24T05:39:42;13.33;;;2.73;;
11247;SDS011;5681;53.316;13.950;2023-02-24T05:42:08;14.63;;;2.90;;
11247;SDS011;5681;53.316;13.950;2023-02-24T05:44:35;12.93;;;2.27;;
11247;SDS011;5681;53.316;13.950;2023-02-24T05:47:03;17.90;;;2.70;;
11247;SDS011;5681;53.316;13.950;2023-02-24T05:49:31;12.13;;;2.40;;
11247;SDS011;5681;53.316;13.950;2023-02-24T05:51:58;11.83;;;2.57;;
11247;SDS011;5681;53.316;13.950;2023-02-24T05:54:27;17.87;;;7.03;;
11247;SDS011;5681;53.316;13.950;2023-02-24T05:56:54;21.10;;;7.17;;
11247;SDS011;5681;53.316;13.950;2023-02-24T05:59:22;44.87;;;25.30;;
11247;SDS011;5681;53.316;13.950;2023-02-24T06:01:49;37.67;;;20.10;;
11247;SDS011;5681;53.316;13.950;2023-02-24T06:04:18;45.70;;;26.60;;
11247;SDS011;5681;53.316;13.950;2023-02-24T06:07:03;20.80;;;5.23;;
11247;SDS011;5681;53.316;13.950;2023-02-24T06:09:30;18.33;;;7.00;;
11247;SDS011;5681;53.316;13.950;2023-02-24T06:11:56;19.37;;;7.70;;
11247;SDS011;5681;53.316;13.950;2023-02-24T06:14:23;20.50;;;5.67;;
11247;SDS011;5681;53.316;13.950;2023-02-24T06:16:49;19.60;;;8.10;;
11247;SDS011;5681;53.316;13.950;2023-02-24T06:19:15;21.77;;;10.93;;
11247;SDS011;5681;53.316;13.950;2023-02-24T06:21:43;19.73;;;6.60;;
11247;SDS011;5681;53.316;13.950;2023-02-24T06:24:10;25.13;;;11.13;;
11247;SDS011;5681;53.316;13.950;2023-02-24T06:26:39;17.20;;;5.17;;
11247;SDS011;5681;53.316;13.950;2023-02-24T06:29:09;69.27;;;37.33;;
11247;SDS011;5681;53.316;13.950;2023-02-24T06:31:37;20.77;;;8.80;;
11247;SDS011;5681;53.316;13.950;2023-02-24T06:34:03;17.57;;;4.20;;
11247;SDS011;5681;53.316;13.950;2023-02-24T06:36:30;10.73;;;2.70;;
11247;SDS011;5681;53.316;13.950;2023-02-24T06:38:57;10.87;;;2.97;;
11247;SDS011;5681;53.316;13.950;2023-02-24T06:41:24;16.27;;;3.53;;
11247;SDS011;5681;53.316;13.950;2023-02-24T06:43:53;17.00;;;6.43;;
11247;SDS011;5681;53.316;13.950;2023-02-24T06:46:19;27.73;;;16.63;;
11247;SDS011;5681;53.316;13.950;2023-02-24T06:48:46;18.13;;;9.63;;
11247;SDS011;5681;53.316;13.950;2023-02-24T06:51:13;19.83;;;7.63;;
11247;SDS011;5681;53.316;13.950;2023-02-24T06:53:40;15.33;;;4.53;;
11247;SDS011;5681;53.316;13.950;2023-02-24T06:56:09;22.90;;;12.97;;
11247;SDS011;5681;53.316;13.950;2023-02-24T06:58:39;19.37;;;13.27;;
11247;SDS011;5681;53.316;13.950;2023-02-24T07:01:08;15.00;;;6.17;;
11247;SDS011;5681;53.316;13.950;2023-02-24T07:03:35;39.20;;;18.13;;
11247;SDS011;5681;53.316;13.950;2023-02-24T07:06:04;34.60;;;14.87;;
11247;SDS011;5681;53.316;13.950;2023-02-24T07:08:46;23.43;;;8.47;;
11247;SDS011;5681;53.316;13.950;2023-02-24T07:11:13;23.33;;;9.43;;
11247;SDS011;5681;53.316;13.950;2023-02-24T07:13:43;31.47;;;9.63;;
11247;SDS011;5681;53.316;13.950;2023-02-24T07:16:11;21.03;;;6.70;;
11247;SDS011;5681;53.316;13.950;2023-02-24T07:18:40;21.93;;;6.73;;
11247;SDS011;5681;53.316;13.950;2023-02-24T07:21:08;19.27;;;3.83;;
11247;SDS011;5681;53.316;13.950;2023-02-24T07:23:36;35.60;;;9.30;;
11247;SDS011;5681;53.316;13.950;2023-02-24T07:26:05;30.30;;;9.83;;
11247;SDS011;5681;53.316;13.950;2023-02-24T07:28:35;19.13;;;5.30;;
11247;SDS011;5681;53.316;13.950;2023-02-24T07:31:04;30.97;;;12.57;;
11247;SDS011;5681;53.316;13.950;2023-02-24T07:33:32;24.93;;;8.30;;
11247;SDS011;5681;53.316;13.950;2023-02-24T07:35:58;18.30;;;5.00;;
11247;SDS011;5681;53.316;13.950;2023-02-24T07:38:32;32.80;;;10.27;;
11247;SDS011;5681;53.316;13.950;2023-02-24T07:41:00;14.20;;;4.47;;
11247;SDS011;5681;53.316;13.950;2023-02-24T07:43:26;13.20;;;3.20;;
11247;SDS011;5681;53.316;13.950;2023-02-24T07:45:54;26.97;;;6.63;;
11247;SDS011;5681;53.316;13.950;2023-02-24T07:48:22;22.63;;;6.03;;
11247;SDS011;5681;53.316;13.950;2023-02-24T07:50:49;23.90;;;6.70;;
11247;SDS011;5681;53.316;13.950;2023-02-24T07:53:16;14.53;;;3.93;;
11247;SDS011;5681;53.316;13.950;2023-02-24T07:55:43;15.60;;;3.80;;
11247;SDS011;5681;53.316;13.950;2023-02-24T07:58:10;11.90;;;2.87;;
11247;SDS011;5681;53.316;13.950;2023-02-24T08:00:36;11.00;;;3.10;;
11247;SDS011;5681;53.316;13.950;2023-02-24T08:03:24;8.57;;;2.70;;
11247;SDS011;5681;53.316;13.950;2023-02-24T08:05:54;9.87;;;2.60;;
11247;SDS011;5681;53.316;13.950;2023-02-24T08:08:24;9.63;;;2.60;;
11247;SDS011;5681;53.316;13.950;2023-02-24T08:10:50;11.17;;;2.50;;
11247;SDS011;5681;53.316;13.950;2023-02-24T08:13:25;11.10;;;2.80;;
11247;SDS011;5681;53.316;13.950;2023-02-24T08:15:53;12.73;;;2.63;;
11247;SDS011;5681;53.316;13.950;2023-02-24T08:18:26;9.30;;;2.20;;
11247;SDS011;5681;53.316;13.950;2023-02-24T08:20:53;11.87;;;2.43;;
11247;SDS011;5681;53.316;13.950;2023-02-24T08:23:28;6.83;;;2.27;;
11247;SDS011;5681;53.316;13.950;2023-02-24T08:26:00;11.63;;;2.60;;
11247;SDS011;5681;53.316;13.950;2023-02-24T08:28:27;14.90;;;2.53;;
11247;SDS011;5681;53.316;13.950;2023-02-24T08:30:53;12.13;;;2.07;;
11247;SDS011;5681;53.316;13.950;2023-02-24T08:33:20;10.20;;;2.10;;
11247;SDS011;5681;53.316;13.950;2023-02-24T08:35:50;10.80;;;1.97;;
11247;SDS011;5681;53.316;13.950;2023-02-24T08:38:24;7.77;;;1.90;;
11247;SDS011;5681;53.316;13.950;2023-02-24T08:40:52;11.53;;;2.40;;
11247;SDS011;5681;53.316;13.950;2023-02-24T08:43:24;10.37;;;2.20;;
11247;SDS011;5681;53.316;13.950;2023-02-24T08:46:00;7.17;;;1.63;;
11247;SDS011;5681;53.316;13.950;2023-02-24T08:48:32;11.53;;;2.10;;
11247;SDS011;5681;53.316;13.950;2023-02-24T08:51:08;9.53;;;2.00;;
11247;SDS011;5681;53.316;13.950;2023-02-24T08:53:38;9.13;;;2.17;;
11247;SDS011;5681;53.316;13.950;2023-02-24T08:56:06;12.20;;;2.20;;
11247;SDS011;5681;53.316;13.950;2023-02-24T08:58:37;6.73;;;1.80;;
11247;SDS011;5681;53.316;13.950;2023-02-24T09:01:11;11.53;;;2.27;;
11247;SDS011;5681;53.316;13.950;2023-02-24T09:03:43;10.83;;;2.17;;
11247;SDS011;5681;53.316;13.950;2023-02-24T09:06:13;14.30;;;2.33;;
11247;SDS011;5681;53.316;13.950;2023-02-24T09:08:42;13.03;;;2.40;;
11247;SDS011;5681;53.316;13.950;2023-02-24T09:11:10;19.23;;;2.73;;
11247;SDS011;5681;53.316;13.950;2023-02-24T09:13:38;11.33;;;1.87;;
11247;SDS011;5681;53.316;13.950;2023-02-24T09:16:15;10.93;;;2.43;;
11247;SDS011;5681;53.316;13.950;2023-02-24T09:18:42;16.93;;;1.90;;
11247;SDS011;5681;53.316;13.950;2023-02-24T09:21:09;8.27;;;1.80;;
11247;SDS011;5681;53.316;13.950;2023-02-24T09:23:58;22.10;;;10.57;;
11247;SDS011;5681;53.316;13.950;2023-02-24T09:26:29;18.87;;;9.27;;
11247;SDS011;5681;53.316;13.950;2023-02-24T09:29:07;15.53;;;6.77;;
11247;SDS011;5681;53.316;13.950;2023-02-24T09:31:53;9.43;;;2.50;;
11247;SDS011;5681;53.316;13.950;2023-02-24T09:34:28;8.20;;;2.77;;
11247;SDS011;5681;53.316;13.950;2023-02-24T09:36:55;10.27;;;3.93;;
11247;SDS011;5681;53.316;13.950;2023-02-24T09:39:32;5.70;;;2.60;;
11247;SDS011;5681;53.316;13.950;2023-02-24T09:42:21;12.30;;;3.33;;
11247;SDS011;5681;53.316;13.950;2023-02-24T09:44:58;11.43;;;3.27;;
11247;SDS011;5681;53.316;13.950;2023-02-24T09:47:27;11.67;;;2.73;;
11247;SDS011;5681;53.316;13.950;2023-02-24T09:50:05;8.00;;;2.60;;
11247;SDS011;5681;53.316;13.950;2023-02-24T09:52:38;12.53;;;2.67;;
11247;SDS011;5681;53.316;13.950;2023-02-24T09:55:10;7.97;;;2.10;;
11247;SDS011;5681;53.316;13.950;2023-02-24T09:57:49;7.97;;;1.83;;
11247;SDS011;5681;53.316;13.950;2023-02-24T10:00:36;7.17;;;2.10;;
11247;SDS011;5681;53.316;13.950;2023-02-24T10:03:09;7.97;;;2.33;;
11247;SDS011;5681;53.316;13.950;2023-02-24T10:05:45;11.87;;;2.33;;
11247;SDS011;5681;53.316;13.950;2023-02-24T10:08:25;14.27;;;2.70;;
11247;SDS011;5681;53.316;13.950;2023-02-24T10:10:57;9.33;;;2.30;;
11247;SDS011;5681;53.316;13.950;2023-02-24T10:13:32;9.60;;;2.30;;
11247;SDS011;5681;53.316;13.950;2023-02-24T10:16:01;12.37;;;2.87;;
11247;SDS011;5681;53.316;13.950;2023-02-24T10:18:31;11.27;;;2.73;;
11247;SDS011;5681;53.316;13.950;2023-02-24T10:21:02;8.63;;;2.60;;
11247;SDS011;5681;53.316;13.950;2023-02-24T10:23:42;8.13;;;2.87;;
11247;SDS011;5681;53.316;13.950;2023-02-24T10:26:22;10.93;;;3.57;;
11247;SDS011;5681;53.316;13.950;2023-02-24T10:28:57;11.23;;;2.70;;
11247;SDS011;5681;53.316;13.950;2023-02-24T10:31:33;13.03;;;2.37;;
11247;SDS011;5681;53.316;13.950;2023-02-24T10:34:07;11.67;;;2.87;;
11247;SDS011;5681;53.316;13.950;2023-02-24T10:36:35;9.07;;;2.70;;
11247;SDS011;5681;53.316;13.950;2023-02-24T10:39:05;7.67;;;2.70;;
11247;SDS011;5681;53.316;13.950;2023-02-24T10:41:43;11.57;;;3.60;;
11247;SDS011;5681;53.316;13.950;2023-02-24T10:44:18;5.00;;;2.10;;
11247;SDS011;5681;53.316;13.950;2023-02-24T10:46:57;10.77;;;2.57;;
11247;SDS011;5681;53.316;13.950;2023-02-24T10:49:38;11.90;;;2.93;;
11247;SDS011;5681;53.316;13.950;2023-02-24T10:52:20;13.43;;;3.00;;
11247;SDS011;5681;53.316;13.950;2023-02-24T10:55:01;13.20;;;2.93;;
11247;SDS011;5681;53.316;13.950;2023-02-24T10:57:53;13.33;;;2.67;;
11247;SDS011;5681;53.316;13.950;2023-02-24T11:00:35;13.13;;;3.23;;
11247;SDS011;5681;53.316;13.950;2023-02-24T11:03:23;12.80;;;3.03;;
11247;SDS011;5681;53.316;13.950;2023-02-24T11:06:00;8.60;;;3.40;;
11247;SDS011;5681;53.316;13.950;2023-02-24T11:08:44;9.37;;;2.77;;
11247;SDS011;5681;53.316;13.950;2023-02-24T11:11:28;9.27;;;3.10;;
11247;SDS011;5681;53.316;13.950;2023-02-24T11:14:18;11.93;;;3.00;;
11247;SDS011;5681;53.316;13.950;2023-02-24T11:17:03;10.37;;;3.13;;
11247;SDS011;5681;53.316;13.950;2023-02-24T11:19:44;10.90;;;3.17;;
11247;SDS011;5681;53.316;13.950;2023-02-24T11:22:15;10.27;;;3.03;;
11247;SDS011;5681;53.316;13.950;2023-02-24T11:24:42;11.23;;;3.10;;
11247;SDS011;5681;53.316;13.950;2023-02-24T11:27:09;8.20;;;2.87;;
11247;SDS011;5681;53.316;13.950;2023-02-24T11:29:43;9.37;;;3.10;;
11247;SDS011;5681;53.316;13.950;2023-02-24T11:35:06;6.73;;;2.80;;
11247;SDS011;5681;53.316;13.950;2023-02-24T11:37:38;9.30;;;4.50;;
11247;SDS011;5681;53.316;13.950;2023-02-24T11:40:10;10.07;;;3.37;;
11247;SDS011;5681;53.316;13.950;2023-02-24T11:42:40;11.07;;;4.13;;
11247;SDS011;5681;53.316;13.950;2023-02-24T11:45:14;7.67;;;3.93;;
11247;SDS011;5681;53.316;13.950;2023-02-24T11:47:47;9.00;;;3.20;;
11247;SDS011;5681;53.316;13.950;2023-02-24T11:50:21;8.53;;;4.00;;
11247;SDS011;5681;53.316;13.950;2023-02-24T11:52:52;8.90;;;2.97;;
11247;SDS011;5681;53.316;13.950;2023-02-24T11:55:23;5.77;;;2.50;;
11247;SDS011;5681;53.316;13.950;2023-02-24T11:57:58;7.07;;;2.53;;
11247;SDS011;5681;53.316;13.950;2023-02-24T12:00:30;7.77;;;2.40;;
11247;SDS011;5681;53.316;13.950;2023-02-24T12:02:58;8.57;;;2.40;;
11247;SDS011;5681;53.316;13.950;2023-02-24T12:05:26;6.83;;;2.20;;
11247;SDS011;5681;53.316;13.950;2023-02-24T12:07:56;6.27;;;2.53;;
11247;SDS011;5681;53.316;13.950;2023-02-24T12:10:28;6.80;;;2.33;;
11247;SDS011;5681;53.316;13.950;2023-02-24T12:12:58;6.40;;;2.40;;
11247;SDS011;5681;53.316;13.950;2023-02-24T12:15:29;5.00;;;2.03;;
11247;SDS011;5681;53.316;13.950;2023-02-24T12:17:58;6.17;;;2.20;;
11247;SDS011;5681;53.316;13.950;2023-02-24T12:20:31;3.53;;;1.70;;
11247;SDS011;5681;53.316;13.950;2023-02-24T12:23:00;5.63;;;2.17;;
11247;SDS011;5681;53.316;13.950;2023-02-24T12:25:31;6.73;;;2.60;;
11247;SDS011;5681;53.316;13.950;2023-02-24T12:28:11;9.10;;;3.33;;
11247;SDS011;5681;53.316;13.950;2023-02-24T12:30:51;7.03;;;2.33;;
11247;SDS011;5681;53.316;13.950;2023-02-24T12:33:27;4.37;;;2.00;;
11247;SDS011;5681;53.316;13.950;2023-02-24T12:35:59;4.10;;;2.10;;
11247;SDS011;5681;53.316;13.950;2023-02-24T12:38:37;4.20;;;2.37;;
11247;SDS011;5681;53.316;13.950;2023-02-24T12:41:14;5.27;;;1.90;;
11247;SDS011;5681;53.316;13.950;2023-02-24T12:43:45;3.63;;;2.00;;
11247;SDS011;5681;53.316;13.950;2023-02-24T12:46:19;3.53;;;1.90;;
11247;SDS011;5681;53.316;13.950;2023-02-24T12:48:55;3.77;;;2.20;;
11247;SDS011;5681;53.316;13.950;2023-02-24T12:51:36;5.70;;;2.87;;
11247;SDS011;5681;53.316;13.950;2023-02-24T12:54:08;4.30;;;2.93;;
11247;SDS011;5681;53.316;13.950;2023-02-24T12:56:40;4.70;;;2.63;;
11247;SDS011;5681;53.316;13.950;2023-02-24T12:59:11;3.47;;;1.90;;
11247;SDS011;5681;53.316;13.950;2023-02-24T13:01:44;3.00;;;1.60;;
11247;SDS011;5681;53.316;13.950;2023-02-24T13:04:20;2.80;;;1.90;;
11247;SDS011;5681;53.316;13.950;2023-02-24T13:07:00;5.00;;;2.00;;
11247;SDS011;5681;53.316;13.950;2023-02-24T13:09:34;2.93;;;1.87;;
11247;SDS011;5681;53.316;13.950;2023-02-24T13:12:05;3.57;;;1.80;;
11247;SDS011;5681;53.316;13.950;2023-02-24T13:14:37;2.50;;;1.60;;
11247;SDS011;5681;53.316;13.950;2023-02-24T13:17:15;3.53;;;1.67;;
11247;SDS011;5681;53.316;13.950;2023-02-24T13:19:44;3.73;;;1.60;;
11247;SDS011;5681;53.316;13.950;2023-02-24T13:22:18;2.10;;;1.70;;
11247;SDS011;5681;53.316;13.950;2023-02-24T13:24:54;4.23;;;1.80;;
11247;SDS011;5681;53.316;13.950;2023-02-24T13:27:23;4.10;;;1.70;;
11247;SDS011;5681;53.316;13.950;2023-02-24T13:29:50;2.87;;;1.40;;
11247;SDS011;5681;53.316;13.950;2023-02-24T13:35:04;3.20;;;1.53;;
11247;SDS011;5681;53.316;13.950;2023-02-24T13:37:53;2.57;;;1.57;;
11247;SDS011;5681;53.316;13.950;2023-02-24T13:40:21;4.13;;;1.30;;
11247;SDS011;5681;53.316;13.950;2023-02-24T13:42:57;3.83;;;1.47;;
11247;SDS011;5681;53.316;13.950;2023-02-24T13:45:25;1.73;;;1.50;;
11247;SDS011;5681;53.316;13.950;2023-02-24T13:47:59;1.60;;;1.43;;
11247;SDS011;5681;53.316;13.950;2023-02-24T13:50:37;1.70;;;1.30;;
11247;SDS011;5681;53.316;13.950;2023-02-24T13:53:19;2.13;;;1.63;;
11247;SDS011;5681;53.316;13.950;2023-02-24T13:56:01;2.40;;;1.30;;
11247;SDS011;5681;53.316;13.950;2023-02-24T13:58:38;2.40;;;1.43;;
11247;SDS011;5681;53.316;13.950;2023-02-24T14:01:11;2.77;;;1.90;;
11247;SDS011;5681;53.316;13.950;2023-02-24T14:03:42;1.67;;;1.43;;
11247;SDS011;5681;53.316;13.950;2023-02-24T14:06:13;2.50;;;1.83;;
11247;SDS011;5681;53.316;13.950;2023-02-24T14:08:46;4.23;;;2.47;;
11247;SDS011;5681;53.316;13.950;2023-02-24T14:11:14;2.50;;;2.13;;
11247;SDS011;5681;53.316;13.950;2023-02-24T14:13:43;4.00;;;2.57;;
11247;SDS011;5681;53.316;13.950;2023-02-24T14:16:13;4.03;;;2.20;;
11247;SDS011;5681;53.316;13.950;2023-02-24T14:18:42;4.67;;;3.00;;
11247;SDS011;5681;53.316;13.950;2023-02-24T14:21:18;5.03;;;2.17;;
11247;SDS011;5681;53.316;13.950;2023-02-24T14:23:55;3.80;;;2.40;;
11247;SDS011;5681;53.316;13.950;2023-02-24T14:26:22;3.13;;;2.20;;
11247;SDS011;5681;53.316;13.950;2023-02-24T14:28:50;5.43;;;2.40;;
11247;SDS011;5681;53.316;13.950;2023-02-24T14:31:20;2.73;;;2.20;;
11247;SDS011;5681;53.316;13.950;2023-02-24T14:33:52;4.60;;;2.60;;
11247;SDS011;5681;53.316;13.950;2023-02-24T14:36:21;6.60;;;3.50;;
11247;SDS011;5681;53.316;13.950;2023-02-24T14:38:59;7.47;;;3.60;;
11247;SDS011;5681;53.316;13.950;2023-02-24T14:41:27;5.87;;;3.23;;
11247;SDS011;5681;53.316;13.950;2023-02-24T14:43:53;4.70;;;3.10;;
11247;SDS011;5681;53.316;13.950;2023-02-24T14:46:20;6.40;;;3.00;;
11247;SDS011;5681;53.316;13.950;2023-02-24T14:48:50;5.47;;;4.13;;
11247;SDS011;5681;53.316;13.950;2023-02-24T14:51:18;4.57;;;3.10;;
11247;SDS011;5681;53.316;13.950;2023-02-24T14:53:49;5.97;;;3.07;;
11247;SDS011;5681;53.316;13.950;2023-02-24T14:56:17;4.80;;;3.00;;
11247;SDS011;5681;53.316;13.950;2023-02-24T14:58:44;8.00;;;3.00;;
11247;SDS011;5681;53.316;13.950;2023-02-24T15:01:17;4.40;;;3.10;;
11247;SDS011;5681;53.316;13.950;2023-02-24T15:03:46;4.20;;;3.27;;
11247;SDS011;5681;53.316;13.950;2023-02-24T15:06:17;3.07;;;2.70;;
11247;SDS011;5681;53.316;13.950;2023-02-24T15:08:46;4.97;;;3.20;;